sensor_id;sensor_type;location;lat;lon;timestamp;pressure;altitude;pressure_sealevel;temperature;humidity
26043;BME280;13818;52.156;5.382;2022-09-28T00:02:00;99320.28;;;8.77;100.00
26043;BME280;13818;52.156;5.382;2022-09-28T00:04:27;99320.19;;;8.79;100.00
26043;BME280;13818;52.156;5.382;2022-09-28T00:06:53;99316.50;;;8.82;100.00
26043;BME280;13818;52.156;5.382;2022-09-28T00:09:21;99318.47;;;8.78;100.00
26043;BME280;13818;52.156;5.382;2022-09-28T00:11:48;99315.53;;;8.83;100.00
26043;BME280;13818;52.156;5.382;2022-09-28T00:14:14;99320.19;;;8.79;100.00
26043;BME280;13818;52.156;5.382;2022-09-28T00:16:43;99321.31;;;8.75;100.00
26043;BME280;13818;52.156;5.382;2022-09-28T00:19:10;99313.16;;;8.78;100.00
26043;BME280;13818;52.156;5.382;2022-09-28T00:21:38;99316.66;;;8.78;100.00
26043;BME280;13818;52.156;5.382;2022-09-28T00:24:06;99315.72;;;8.79;100.00
26043;BME280;13818;52.156;5.382;2022-09-28T00:26:43;99313.53;;;8.72;100.00
26043;BME280;13818;52.156;5.382;2022-09-28T00:29:21;99318.97;;;8.70;100.00
26043;BME280;13818;52.156;5.382;2022-09-28T00:31:51;99319.69;;;8.72;100.00
26043;BME280;13818;52.156;5.382;2022-09-28T00:34:18;99316.03;;;8.60;100.00
26043;BME280;13818;52.156;5.382;2022-09-28T00:36:45;99311.38;;;8.64;100.00
26043;BME280;13818;52.156;5.382;2022-09-28T00:39:13;99312.88;;;8.68;100.00
26043;BME280;13818;52.156;5.382;2022-09-28T00:41:42;99316.09;;;8.73;100.00
26043;BME280;13818;52.156;5.382;2022-09-28T00:44:34;99310.06;;;8.71;100.00
26043;BME280;13818;52.156;5.382;2022-09-28T00:47:07;99306.72;;;8.68;100.00
26043;BME280;13818;52.156;5.382;2022-09-28T00:49:38;99306.25;;;8.61;100.00
26043;BME280;13818;52.156;5.382;2022-09-28T00:52:08;99303.78;;;8.58;100.00
26043;BME280;13818;52.156;5.382;2022-09-28T00:54:38;99296.41;;;8.49;100.00
26043;BME280;13818;52.156;5.382;2022-09-28T00:57:07;99294.09;;;8.42;100.00
26043;BME280;13818;52.156;5.382;2022-09-28T00:59:34;99297.59;;;8.43;100.00
26043;BME280;13818;52.156;5.382;2022-09-28T01:02:01;99300.47;;;8.40;100.00
26043;BME280;13818;52.156;5.382;2022-09-28T01:04:28;99298.53;;;8.42;100.00
26043;BME280;13818;52.156;5.382;2022-09-28T01:06:56;99295.88;;;8.42;100.00
26043;BME280;13818;52.156;5.382;2022-09-28T01:09:25;99290.78;;;8.39;100.00
26043;BME280;13818;52.156;5.382;2022-09-28T01:11:53;99291.16;;;8.33;100.00
26043;BME280;13818;52.156;5.382;2022-09-28T01:14:21;99294.16;;;8.41;100.00
26043;BME280;13818;52.156;5.382;2022-09-28T01:16:57;99297.25;;;8.49;100.00
26043;BME280;13818;52.156;5.382;2022-09-28T01:19:41;99291.84;;;8.51;100.00
26043;BME280;13818;52.156;5.382;2022-09-28T01:22:21;99285.84;;;8.47;100.00
26043;BME280;13818;52.156;5.382;2022-09-28T01:24:55;99288.50;;;8.47;100.00
26043;BME280;13818;52.156;5.382;2022-09-28T01:27:27;99287.28;;;8.53;100.00
26043;BME280;13818;52.156;5.382;2022-09-28T01:30:02;99284.75;;;8.51;100.00
26043;BME280;13818;52.156;5.382;2022-09-28T01:32:35;99278.06;;;8.44;100.00
26043;BME280;13818;52.156;5.382;2022-09-28T01:35:07;99280.72;;;8.44;100.00
26043;BME280;13818;52.156;5.382;2022-09-28T01:37:54;99284.91;;;8.48;100.00
26043;BME280;13818;52.156;5.382;2022-09-28T01:40:24;99291.63;;;8.39;100.00
26043;BME280;13818;52.156;5.382;2022-09-28T01:42:53;99283.66;;;8.39;100.00
26043;BME280;13818;52.156;5.382;2022-09-28T01:45:25;99294.28;;;8.39;100.00
26043;BME280;13818;52.156;5.382;2022-09-28T01:47:55;99295.63;;;8.46;100.00
26043;BME280;13818;52.156;5.382;2022-09-28T01:50:25;99283.97;;;8.35;100.00
26043;BME280;13818;52.156;5.382;2022-09-28T01:52:58;99287.06;;;8.27;100.00
26043;BME280;13818;52.156;5.382;2022-09-28T01:55:29;99286.00;;;8.29;100.00
26043;BME280;13818;52.156;5.382;2022-09-28T01:58:00;99283.56;;;8.26;100.00
26043;BME280;13818;52.156;5.382;2022-09-28T02:00:29;99288.31;;;8.21;100.00
26043;BME280;13818;52.156;5.382;2022-09-28T02:02:58;99288.47;;;8.18;100.00
26043;BME280;13818;52.156;5.382;2022-09-28T02:05:28;99283.16;;;8.18;100.00
26043;BME280;13818;52.156;5.382;2022-09-28T02:08:02;99279.56;;;8.19;100.00
26043;BME280;13818;52.156;5.382;2022-09-28T02:10:32;99283.47;;;8.13;100.00
26043;BME280;13818;52.156;5.382;2022-09-28T02:13:05;99290.97;;;8.21;100.00
26043;BME280;13818;52.156;5.382;2022-09-28T02:15:39;99284.03;;;8.19;100.00
26043;BME280;13818;52.156;5.382;2022-09-28T02:18:09;99278.06;;;8.15;100.00
26043;BME280;13818;52.156;5.382;2022-09-28T02:20:38;99282.53;;;8.14;100.00
26043;BME280;13818;52.156;5.382;2022-09-28T02:23:06;99284.88;;;8.19;100.00
26043;BME280;13818;52.156;5.382;2022-09-28T02:25:41;99285.28;;;8.27;100.00
26043;BME280;13818;52.156;5.382;2022-09-28T02:28:12;99289.66;;;8.28;100.00
26043;BME280;13818;52.156;5.382;2022-09-28T02:30:40;99285.94;;;8.31;100.00
26043;BME280;13818;52.156;5.382;2022-09-28T02:33:12;99288.22;;;8.23;100.00
26043;BME280;13818;52.156;5.382;2022-09-28T02:35:40;99281.19;;;8.22;100.00
26043;BME280;13818;52.156;5.382;2022-09-28T02:38:09;99284.13;;;8.17;100.00
26043;BME280;13818;52.156;5.382;2022-09-28T02:40:35;99285.44;;;8.10;100.00
26043;BME280;13818;52.156;5.382;2022-09-28T02:43:12;99291.97;;;8.04;100.00
26043;BME280;13818;52.156;5.382;2022-09-28T02:45:49;99290.00;;;8.08;100.00
26043;BME280;13818;52.156;5.382;2022-09-28T02:48:39;99286.88;;;8.15;100.00
26043;BME280;13818;52.156;5.382;2022-09-28T02:51:19;99296.34;;;8.05;100.00
26043;BME280;13818;52.156;5.382;2022-09-28T02:54:18;99297.38;;;8.03;100.00
26043;BME280;13818;52.156;5.382;2022-09-28T02:56:54;99292.16;;;8.01;100.00
26043;BME280;13818;52.156;5.382;2022-09-28T02:59:35;99292.47;;;8.11;100.00
26043;BME280;13818;52.156;5.382;2022-09-28T03:02:11;99293.72;;;8.20;100.00
26043;BME280;13818;52.156;5.382;2022-09-28T03:04:41;99292.16;;;8.15;100.00
26043;BME280;13818;52.156;5.382;2022-09-28T03:07:15;99295.03;;;8.12;100.00
26043;BME280;13818;52.156;5.382;2022-09-28T03:09:54;99299.56;;;8.10;100.00
26043;BME280;13818;52.156;5.382;2022-09-28T03:12:24;99299.66;;;8.09;100.00
26043;BME280;13818;52.156;5.382;2022-09-28T03:15:07;99304.59;;;8.01;100.00
26043;BME280;13818;52.156;5.382;2022-09-28T03:17:34;99301.16;;;7.98;100.00
26043;BME280;13818;52.156;5.382;2022-09-28T03:20:01;99308.72;;;7.90;100.00
26043;BME280;13818;52.156;5.382;2022-09-28T03:22:27;99303.72;;;7.86;100.00
26043;BME280;13818;52.156;5.382;2022-09-28T03:24:54;99302.09;;;7.83;100.00
26043;BME280;13818;52.156;5.382;2022-09-28T03:27:20;99317.03;;;7.84;100.00
26043;BME280;13818;52.156;5.382;2022-09-28T03:29:47;99316.41;;;7.80;100.00
26043;BME280;13818;52.156;5.382;2022-09-28T03:32:15;99315.97;;;7.72;100.00
26043;BME280;13818;52.156;5.382;2022-09-28T03:34:41;99315.03;;;7.73;100.00
26043;BME280;13818;52.156;5.382;2022-09-28T03:37:08;99309.06;;;7.70;100.00
26043;BME280;13818;52.156;5.382;2022-09-28T03:39:34;99310.19;;;7.65;100.00
26043;BME280;13818;52.156;5.382;2022-09-28T03:42:01;99307.44;;;7.67;100.00
26043;BME280;13818;52.156;5.382;2022-09-28T03:44:27;99316.06;;;7.71;100.00
26043;BME280;13818;52.156;5.382;2022-09-28T03:46:53;99308.22;;;7.69;100.00
26043;BME280;13818;52.156;5.382;2022-09-28T03:49:22;99310.78;;;7.71;100.00
26043;BME280;13818;52.156;5.382;2022-09-28T03:51:48;99297.41;;;7.72;100.00
26043;BME280;13818;52.156;5.382;2022-09-28T03:54:15;99303.50;;;7.74;100.00
26043;BME280;13818;52.156;5.382;2022-09-28T03:56:41;99298.19;;;7.74;100.00
26043;BME280;13818;52.156;5.382;2022-09-28T03:59:08;99291.53;;;7.67;100.00
26043;BME280;13818;52.156;5.382;2022-09-28T04:01:34;99293.34;;;7.67;100.00
26043;BME280;13818;52.156;5.382;2022-09-28T04:04:00;99287.66;;;7.73;100.00
26043;BME280;13818;52.156;5.382;2022-09-28T04:06:29;99295.03;;;7.68;100.00
26043;BME280;13818;52.156;5.382;2022-09-28T04:08:55;99294.94;;;7.69;100.00
26043;BME280;13818;52.156;5.382;2022-09-28T04:11:21;99296.06;;;7.65;100.00
26043;BME280;13818;52.156;5.382;2022-09-28T04:13:48;99294.72;;;7.58;100.00
26043;BME280;13818;52.156;5.382;2022-09-28T04:16:15;99296.41;;;7.59;100.00
26043;BME280;13818;52.156;5.382;2022-09-28T04:18:43;99309.19;;;7.52;100.00
26043;BME280;13818;52.156;5.382;2022-09-28T04:21:10;99306.72;;;7.49;100.00
26043;BME280;13818;52.156;5.382;2022-09-28T04:23:39;99306.72;;;7.49;100.00
26043;BME280;13818;52.156;5.382;2022-09-28T04:26:08;99313.66;;;7.52;100.00
26043;BME280;13818;52.156;5.382;2022-09-28T04:28:37;99310.91;;;7.53;100.00
26043;BME280;13818;52.156;5.382;2022-09-28T04:31:21;99310.91;;;7.53;100.00
26043;BME280;13818;52.156;5.382;2022-09-28T04:33:49;99313.22;;;7.43;100.00
26043;BME280;13818;52.156;5.382;2022-09-28T04:36:15;99316.91;;;7.41;100.00
26043;BME280;13818;52.156;5.382;2022-09-28T04:38:45;99315.38;;;7.37;100.00
26043;BME280;13818;52.156;5.382;2022-09-28T04:41:11;99322.75;;;7.31;100.00
26043;BME280;13818;52.156;5.382;2022-09-28T04:43:38;99315.47;;;7.35;100.00
26043;BME280;13818;52.156;5.382;2022-09-28T04:46:04;99315.63;;;7.32;100.00
26043;BME280;13818;52.156;5.382;2022-09-28T04:48:31;99312.88;;;7.33;100.00
26043;BME280;13818;52.156;5.382;2022-09-28T04:50:58;99310.22;;;7.33;100.00
26043;BME280;13818;52.156;5.382;2022-09-28T04:53:26;99309.31;;;7.35;100.00
26043;BME280;13818;52.156;5.382;2022-09-28T04:55:58;99316.22;;;7.37;100.00
26043;BME280;13818;52.156;5.382;2022-09-28T04:58:26;99319.56;;;7.41;100.00
26043;BME280;13818;52.156;5.382;2022-09-28T05:00:58;99317.84;;;7.40;100.00
26043;BME280;13818;52.156;5.382;2022-09-28T05:03:24;99319.91;;;7.35;100.00
26043;BME280;13818;52.156;5.382;2022-09-28T05:05:51;99325.03;;;7.38;100.00
26043;BME280;13818;52.156;5.382;2022-09-28T05:08:18;99323.31;;;7.37;100.00
26043;BME280;13818;52.156;5.382;2022-09-28T05:10:44;99317.94;;;7.38;100.00
26043;BME280;13818;52.156;5.382;2022-09-28T05:13:13;99319.16;;;7.32;100.00
26043;BME280;13818;52.156;5.382;2022-09-28T05:15:42;99328.44;;;7.40;100.00
26043;BME280;13818;52.156;5.382;2022-09-28T05:18:09;99326.06;;;7.35;100.00
26043;BME280;13818;52.156;5.382;2022-09-28T05:20:39;99331.09;;;7.40;100.00
26043;BME280;13818;52.156;5.382;2022-09-28T05:23:08;99321.28;;;7.42;100.00
26043;BME280;13818;52.156;5.382;2022-09-28T05:25:34;99327.25;;;7.45;100.00
26043;BME280;13818;52.156;5.382;2022-09-28T05:28:01;99327.25;;;7.45;100.00
26043;BME280;13818;52.156;5.382;2022-09-28T05:30:29;99329.81;;;7.47;100.00
26043;BME280;13818;52.156;5.382;2022-09-28T05:32:56;99331.16;;;7.54;100.00
26043;BME280;13818;52.156;5.382;2022-09-28T05:35:22;99333.03;;;7.52;100.00
26043;BME280;13818;52.156;5.382;2022-09-28T05:37:48;99333.97;;;7.51;100.00
26043;BME280;13818;52.156;5.382;2022-09-28T05:40:15;99332.00;;;7.55;100.00
26043;BME280;13818;52.156;5.382;2022-09-28T05:42:41;99334.56;;;7.56;100.00
26043;BME280;13818;52.156;5.382;2022-09-28T05:45:08;99334.56;;;7.56;100.00
26043;BME280;13818;52.156;5.382;2022-09-28T05:47:38;99337.06;;;7.59;100.00
26043;BME280;13818;52.156;5.382;2022-09-28T05:50:06;99338.78;;;7.60;100.00
26043;BME280;13818;52.156;5.382;2022-09-28T05:52:35;99338.09;;;7.57;100.00
26043;BME280;13818;52.156;5.382;2022-09-28T05:55:02;99341.81;;;7.69;100.00
26043;BME280;13818;52.156;5.382;2022-09-28T05:57:29;99333.69;;;7.72;100.00
26043;BME280;13818;52.156;5.382;2022-09-28T05:59:56;99337.00;;;7.75;100.00
26043;BME280;13818;52.156;5.382;2022-09-28T06:02:23;99335.31;;;7.74;100.00
26043;BME280;13818;52.156;5.382;2022-09-28T06:04:51;99340.56;;;7.90;100.00
26043;BME280;13818;52.156;5.382;2022-09-28T06:07:18;99343.25;;;8.05;100.00
26043;BME280;13818;52.156;5.382;2022-09-28T06:09:45;99337.78;;;8.37;100.00
26043;BME280;13818;52.156;5.382;2022-09-28T06:12:11;99335.47;;;8.61;100.00
26043;BME280;13818;52.156;5.382;2022-09-28T06:14:40;99340.38;;;8.96;100.00
26043;BME280;13818;52.156;5.382;2022-09-28T06:17:06;99334.47;;;9.33;100.00
26043;BME280;13818;52.156;5.382;2022-09-28T06:19:33;99333.97;;;9.68;100.00
26043;BME280;13818;52.156;5.382;2022-09-28T06:22:00;99332.88;;;9.85;100.00
26043;BME280;13818;52.156;5.382;2022-09-28T06:24:27;99336.44;;;10.24;100.00
26043;BME280;13818;52.156;5.382;2022-09-28T06:26:53;99340.41;;;10.57;100.00
26043;BME280;13818;52.156;5.382;2022-09-28T06:29:20;99333.88;;;10.87;100.00
26043;BME280;13818;52.156;5.382;2022-09-28T06:31:46;99329.94;;;11.17;100.00
26043;BME280;13818;52.156;5.382;2022-09-28T06:34:13;99330.34;;;11.72;100.00
26043;BME280;13818;52.156;5.382;2022-09-28T06:36:39;99324.09;;;12.31;100.00
26043;BME280;13818;52.156;5.382;2022-09-28T06:39:08;99330.31;;;12.89;100.00
26043;BME280;13818;52.156;5.382;2022-09-28T06:41:35;99336.09;;;13.28;100.00
26043;BME280;13818;52.156;5.382;2022-09-28T06:44:01;99334.50;;;13.37;100.00
26043;BME280;13818;52.156;5.382;2022-09-28T06:46:28;99346.00;;;13.60;100.00
26043;BME280;13818;52.156;5.382;2022-09-28T06:48:55;99336.78;;;13.85;100.00
26043;BME280;13818;52.156;5.382;2022-09-28T06:51:22;99333.72;;;14.32;100.00
26043;BME280;13818;52.156;5.382;2022-09-28T06:53:49;99336.66;;;14.50;100.00
26043;BME280;13818;52.156;5.382;2022-09-28T06:56:19;99336.06;;;14.46;100.00
26043;BME280;13818;52.156;5.382;2022-09-28T06:58:45;99344.28;;;15.07;100.00
26043;BME280;13818;52.156;5.382;2022-09-28T07:01:12;99348.13;;;15.24;100.00
26043;BME280;13818;52.156;5.382;2022-09-28T07:03:38;99337.34;;;15.04;100.00
26043;BME280;13818;52.156;5.382;2022-09-28T07:06:05;99346.91;;;14.97;100.00
26043;BME280;13818;52.156;5.382;2022-09-28T07:08:35;99352.84;;;15.01;100.00
26043;BME280;13818;52.156;5.382;2022-09-28T07:11:04;99353.72;;;14.70;100.00
26043;BME280;13818;52.156;5.382;2022-09-28T07:13:32;99356.09;;;14.42;100.00
26043;BME280;13818;52.156;5.382;2022-09-28T07:15:59;99355.81;;;14.24;100.00
26043;BME280;13818;52.156;5.382;2022-09-28T07:18:26;99364.81;;;14.23;100.00
26043;BME280;13818;52.156;5.382;2022-09-28T07:20:54;99368.44;;;13.80;100.00
26043;BME280;13818;52.156;5.382;2022-09-28T07:23:22;99373.81;;;13.80;100.00
26043;BME280;13818;52.156;5.382;2022-09-28T07:25:51;99373.94;;;14.11;100.00
26043;BME280;13818;52.156;5.382;2022-09-28T07:28:17;99382.88;;;14.21;100.00
26043;BME280;13818;52.156;5.382;2022-09-28T07:30:46;99383.47;;;14.25;100.00
26043;BME280;13818;52.156;5.382;2022-09-28T07:33:14;99384.50;;;14.12;100.00
26043;BME280;13818;52.156;5.382;2022-09-28T07:35:49;99383.22;;;14.49;100.00
26043;BME280;13818;52.156;5.382;2022-09-28T07:38:16;99383.94;;;14.51;100.00
26043;BME280;13818;52.156;5.382;2022-09-28T07:40:43;99389.06;;;14.00;100.00
26043;BME280;13818;52.156;5.382;2022-09-28T07:43:27;99389.53;;;14.48;100.00
26043;BME280;13818;52.156;5.382;2022-09-28T07:45:55;99396.59;;;14.28;100.00
26043;BME280;13818;52.156;5.382;2022-09-28T07:48:22;99393.00;;;14.60;100.00
26043;BME280;13818;52.156;5.382;2022-09-28T07:50:49;99393.50;;;14.96;100.00
26043;BME280;13818;52.156;5.382;2022-09-28T07:53:16;99395.44;;;14.94;100.00
26043;BME280;13818;52.156;5.382;2022-09-28T07:55:44;99397.94;;;15.17;100.00
26043;BME280;13818;52.156;5.382;2022-09-28T07:58:15;99401.09;;;15.22;100.00
26043;BME280;13818;52.156;5.382;2022-09-28T08:00:41;99395.78;;;15.01;100.00
26043;BME280;13818;52.156;5.382;2022-09-28T08:03:13;99400.72;;;14.95;100.00
26043;BME280;13818;52.156;5.382;2022-09-28T08:05:40;99400.63;;;15.07;100.00
26043;BME280;13818;52.156;5.382;2022-09-28T08:08:08;99408.97;;;15.13;100.00
26043;BME280;13818;52.156;5.382;2022-09-28T08:10:35;99405.66;;;15.00;100.00
26043;BME280;13818;52.156;5.382;2022-09-28T08:13:02;99410.66;;;15.15;100.00
26043;BME280;13818;52.156;5.382;2022-09-28T08:15:32;99406.69;;;15.09;100.00
26043;BME280;13818;52.156;5.382;2022-09-28T08:18:01;99410.91;;;15.11;100.00
26043;BME280;13818;52.156;5.382;2022-09-28T08:20:29;99419.63;;;15.35;100.00
26043;BME280;13818;52.156;5.382;2022-09-28T08:23:14;99407.94;;;15.45;100.00
26043;BME280;13818;52.156;5.382;2022-09-28T08:25:45;99421.66;;;15.52;100.00
26043;BME280;13818;52.156;5.382;2022-09-28T08:28:13;99419.09;;;16.01;100.00
26043;BME280;13818;52.156;5.382;2022-09-28T08:30:42;99418.59;;;15.76;100.00
26043;BME280;13818;52.156;5.382;2022-09-28T08:33:09;99431.75;;;15.79;100.00
26043;BME280;13818;52.156;5.382;2022-09-28T08:35:37;99427.63;;;15.66;100.00
26043;BME280;13818;52.156;5.382;2022-09-28T08:38:05;99427.72;;;15.54;100.00
26043;BME280;13818;52.156;5.382;2022-09-28T08:40:36;99433.50;;;15.40;100.00
26043;BME280;13818;52.156;5.382;2022-09-28T08:43:05;99430.31;;;15.66;100.00
26043;BME280;13818;52.156;5.382;2022-09-28T08:45:39;99436.09;;;15.61;100.00
26043;BME280;13818;52.156;5.382;2022-09-28T08:48:09;99430.13;;;15.48;100.00
26043;BME280;13818;52.156;5.382;2022-09-28T08:50:59;99441.06;;;15.25;100.00
26043;BME280;13818;52.156;5.382;2022-09-28T08:53:33;99443.00;;;15.54;100.00
26043;BME280;13818;52.156;5.382;2022-09-28T08:56:08;99435.44;;;15.78;100.00
26043;BME280;13818;52.156;5.382;2022-09-28T08:58:40;99434.66;;;15.57;100.00
26043;BME280;13818;52.156;5.382;2022-09-28T09:01:11;99444.84;;;15.53;100.00
26043;BME280;13818;52.156;5.382;2022-09-28T09:03:41;99447.69;;;15.21;100.00
26043;BME280;13818;52.156;5.382;2022-09-28T09:06:18;99446.38;;;15.46;100.00
26043;BME280;13818;52.156;5.382;2022-09-28T09:08:58;99455.59;;;15.63;100.00
26043;BME280;13818;52.156;5.382;2022-09-28T09:11:37;99453.28;;;15.39;100.00
26043;BME280;13818;52.156;5.382;2022-09-28T09:14:20;99447.66;;;15.52;100.00
26043;BME280;13818;52.156;5.382;2022-09-28T09:16:57;99456.69;;;15.51;100.00
26043;BME280;13818;52.156;5.382;2022-09-28T09:19:37;99459.63;;;15.78;100.00
26043;BME280;13818;52.156;5.382;2022-09-28T09:22:14;99473.88;;;15.79;100.00
26043;BME280;13818;52.156;5.382;2022-09-28T09:24:47;99468.13;;;15.84;100.00
26043;BME280;13818;52.156;5.382;2022-09-28T09:27:28;99469.84;;;15.85;100.00
26043;BME280;13818;52.156;5.382;2022-09-28T09:30:03;99470.97;;;15.92;100.00
26043;BME280;13818;52.156;5.382;2022-09-28T09:32:42;99467.88;;;16.16;100.00
26043;BME280;13818;52.156;5.382;2022-09-28T09:35:23;99465.47;;;16.03;100.00
26043;BME280;13818;52.156;5.382;2022-09-28T09:38:17;99468.13;;;15.93;100.00
26043;BME280;13818;52.156;5.382;2022-09-28T09:40:58;99465.00;;;15.78;100.00
26043;BME280;13818;52.156;5.382;2022-09-28T09:43:49;99472.78;;;15.51;100.00
26043;BME280;13818;52.156;5.382;2022-09-28T09:46:29;99471.59;;;15.74;100.00
26043;BME280;13818;52.156;5.382;2022-09-28T09:48:59;99472.66;;;15.93;100.00
26043;BME280;13818;52.156;5.382;2022-09-28T09:51:38;99471.69;;;15.94;100.00
26043;BME280;13818;52.156;5.382;2022-09-28T09:54:14;99475.97;;;15.66;100.00
26043;BME280;13818;52.156;5.382;2022-09-28T09:56:47;99474.09;;;16.07;100.00
26043;BME280;13818;52.156;5.382;2022-09-28T09:59:21;99472.81;;;15.91;100.00
26043;BME280;13818;52.156;5.382;2022-09-28T10:01:50;99469.44;;;16.09;100.00
26043;BME280;13818;52.156;5.382;2022-09-28T10:04:20;99472.16;;;16.19;100.00
26043;BME280;13818;52.156;5.382;2022-09-28T10:06:50;99471.28;;;16.28;100.00
26043;BME280;13818;52.156;5.382;2022-09-28T10:09:25;99470.16;;;16.01;99.34
26043;BME280;13818;52.156;5.382;2022-09-28T10:11:53;99472.28;;;16.07;97.76
26043;BME280;13818;52.156;5.382;2022-09-28T10:14:22;99466.78;;;16.19;99.17
26043;BME280;13818;52.156;5.382;2022-09-28T10:16:50;99471.28;;;16.28;94.50
26043;BME280;13818;52.156;5.382;2022-09-28T10:19:19;99467.31;;;16.52;92.01
26043;BME280;13818;52.156;5.382;2022-09-28T10:21:48;99462.66;;;16.44;92.28
26043;BME280;13818;52.156;5.382;2022-09-28T10:24:19;99467.88;;;16.36;89.95
26043;BME280;13818;52.156;5.382;2022-09-28T10:26:52;99469.47;;;16.19;88.07
26043;BME280;13818;52.156;5.382;2022-09-28T10:29:21;99476.38;;;16.21;90.65
26043;BME280;13818;52.156;5.382;2022-09-28T10:31:49;99475.06;;;15.86;91.07
26043;BME280;13818;52.156;5.382;2022-09-28T10:34:25;99476.50;;;16.00;91.93
26043;BME280;13818;52.156;5.382;2022-09-28T10:36:54;99476.09;;;16.34;91.12
26043;BME280;13818;52.156;5.382;2022-09-28T10:39:31;99477.94;;;16.34;89.20
26043;BME280;13818;52.156;5.382;2022-09-28T10:42:02;99468.03;;;16.34;89.27
26043;BME280;13818;52.156;5.382;2022-09-28T10:44:32;99471.84;;;16.32;83.62
26043;BME280;13818;52.156;5.382;2022-09-28T10:47:01;99477.78;;;16.16;81.45
26043;BME280;13818;52.156;5.382;2022-09-28T10:49:38;99478.78;;;16.34;83.79
26043;BME280;13818;52.156;5.382;2022-09-28T10:52:04;99475.41;;;16.52;86.29
26043;BME280;13818;52.156;5.382;2022-09-28T10:54:52;99468.16;;;16.62;85.10
26043;BME280;13818;52.156;5.382;2022-09-28T10:57:26;99470.69;;;16.54;84.58
26043;BME280;13818;52.156;5.382;2022-09-28T10:59:53;99470.53;;;16.75;85.47
26043;BME280;13818;52.156;5.382;2022-09-28T11:02:22;99469.66;;;16.84;81.39
26043;BME280;13818;52.156;5.382;2022-09-28T11:04:53;99466.53;;;17.08;79.35
26043;BME280;13818;52.156;5.382;2022-09-28T11:07:22;99469.22;;;16.89;80.09
26043;BME280;13818;52.156;5.382;2022-09-28T11:09:51;99467.22;;;17.11;80.40
26043;BME280;13818;52.156;5.382;2022-09-28T11:12:20;99478.47;;;16.76;79.25
26043;BME280;13818;52.156;5.382;2022-09-28T11:14:55;99463.28;;;16.85;82.46
26043;BME280;13818;52.156;5.382;2022-09-28T11:17:27;99465.56;;;16.80;84.56
26043;BME280;13818;52.156;5.382;2022-09-28T11:19:55;99478.63;;;16.65;86.58
26043;BME280;13818;52.156;5.382;2022-09-28T11:22:25;99472.00;;;16.50;88.42
26043;BME280;13818;52.156;5.382;2022-09-28T11:25:19;99476.47;;;16.79;85.52
26043;BME280;13818;52.156;5.382;2022-09-28T11:27:56;99471.25;;;16.67;84.48
26043;BME280;13818;52.156;5.382;2022-09-28T11:30:27;99469.97;;;16.91;78.61
26043;BME280;13818;52.156;5.382;2022-09-28T11:32:59;99467.22;;;17.11;77.05
26043;BME280;13818;52.156;5.382;2022-09-28T11:35:33;99466.97;;;16.94;78.93
26043;BME280;13818;52.156;5.382;2022-09-28T11:38:29;99460.47;;;16.87;81.28
26043;BME280;13818;52.156;5.382;2022-09-28T11:41:09;99462.16;;;17.07;80.87
26043;BME280;13818;52.156;5.382;2022-09-28T11:43:50;99460.97;;;17.20;78.99
26043;BME280;13818;52.156;5.382;2022-09-28T11:46:31;99470.50;;;17.42;75.39
26043;BME280;13818;52.156;5.382;2022-09-28T11:49:08;99465.50;;;17.47;73.47
26043;BME280;13818;52.156;5.382;2022-09-28T11:51:40;99467.88;;;17.32;72.31
26043;BME280;13818;52.156;5.382;2022-09-28T11:54:12;99471.06;;;17.46;73.34
26043;BME280;13818;52.156;5.382;2022-09-28T11:56:44;99469.84;;;17.30;73.08
26043;BME280;13818;52.156;5.382;2022-09-28T11:59:14;99475.44;;;17.19;74.49
26043;BME280;13818;52.156;5.382;2022-09-28T12:01:45;99469.50;;;17.05;78.20
26043;BME280;13818;52.156;5.382;2022-09-28T12:04:16;99467.59;;;16.68;83.79
26043;BME280;13818;52.156;5.382;2022-09-28T12:06:49;99478.59;;;16.75;85.73
26043;BME280;13818;52.156;5.382;2022-09-28T12:09:19;99469.16;;;16.61;88.01
26043;BME280;13818;52.156;5.382;2022-09-28T12:11:49;99473.78;;;16.79;90.52
26043;BME280;13818;52.156;5.382;2022-09-28T12:14:22;99479.19;;;16.98;88.35
26043;BME280;13818;52.156;5.382;2022-09-28T12:16:54;99479.91;;;16.71;85.91
26043;BME280;13818;52.156;5.382;2022-09-28T12:19:27;99485.44;;;16.20;88.97
26043;BME280;13818;52.156;5.382;2022-09-28T12:22:00;99496.91;;;15.31;94.50
26043;BME280;13818;52.156;5.382;2022-09-28T12:24:31;99507.56;;;14.58;100.00
26043;BME280;13818;52.156;5.382;2022-09-28T12:27:03;99510.50;;;14.55;100.00
26043;BME280;13818;52.156;5.382;2022-09-28T12:29:32;99513.16;;;14.34;100.00
26043;BME280;13818;52.156;5.382;2022-09-28T12:32:09;99525.50;;;14.25;100.00
26043;BME280;13818;52.156;5.382;2022-09-28T12:34:39;99525.78;;;14.10;100.00
26043;BME280;13818;52.156;5.382;2022-09-28T12:37:17;99521.41;;;13.98;100.00
26043;BME280;13818;52.156;5.382;2022-09-28T12:40:00;99522.50;;;13.95;100.00
26043;BME280;13818;52.156;5.382;2022-09-28T12:42:45;99504.69;;;13.73;100.00
26043;BME280;13818;52.156;5.382;2022-09-28T12:45:28;99506.97;;;13.66;100.00
26043;BME280;13818;52.156;5.382;2022-09-28T12:48:10;99504.16;;;13.91;100.00
26043;BME280;13818;52.156;5.382;2022-09-28T12:50:39;99499.13;;;13.97;100.00
26043;BME280;13818;52.156;5.382;2022-09-28T12:56:10;99504.69;;;13.62;100.00
26043;BME280;13818;52.156;5.382;2022-09-28T12:58:51;99495.91;;;13.71;100.00
26043;BME280;13818;52.156;5.382;2022-09-28T13:01:40;99496.34;;;13.88;100.00
26043;BME280;13818;52.156;5.382;2022-09-28T13:04:42;99493.69;;;13.88;100.00
26043;BME280;13818;52.156;5.382;2022-09-28T13:07:18;99482.97;;;13.88;100.00
26043;BME280;13818;52.156;5.382;2022-09-28T13:09:57;99490.16;;;13.87;100.00
26043;BME280;13818;52.156;5.382;2022-09-28T13:12:39;99486.97;;;13.93;100.00
26043;BME280;13818;52.156;5.382;2022-09-28T13:15:25;99489.72;;;14.03;100.00
26043;BME280;13818;52.156;5.382;2022-09-28T13:18:11;99478.91;;;14.05;100.00
26043;BME280;13818;52.156;5.382;2022-09-28T13:20:51;99480.09;;;14.12;100.00
26043;BME280;13818;52.156;5.382;2022-09-28T13:23:21;99484.16;;;14.06;100.00